»·PEaware :: N1600U KYKM-KPSC

N1600U :: KYKM-KPSC

FLIGHT INFORMATION

Flight Status: Arrived
Operator: Privately registered:
United States
More flights under this callsign
Pilot: Nils P. (29346)
Aircraft: CESSNA 172 SKYHAWK
(C172)
More flights by this aircraft type
Origin: KYKM Yakima Air Term/Mcallister
United States
Destination: KPSC Tri-Cities
United States
More flights between these airports :: More routes between these airports
Route: SUNED
File this flight plan on PilotEdge
Remarks:
Altitude:
(Current/Filed)
3,500ft
Speed:
(Current/Filed)
110kts
Departed: 03-May-20 09:44 AM
Arrived: 03-May-20 10:24 AM
Distance/Time
Traveled:
62nm/0:40
Distance/Time
To Go:
Arrived

Flight Plot

Page will automatically refresh every two minutes.


Map Options




Map Legend


Flown Route
Filed Route
Departure Airport
Arrival Airport
Navaid (VOR, NDB)
Fix

Horizontal Profiles

Position Reports

Time Latitude Longitude Heading Altitude Ground
Speed
03-May-20 09:23 46.571504 -120.547965 91 1076ft 0kts
03-May-20 09:24 46.571504 -120.547965 91 1076ft 0kts
03-May-20 09:25 46.571504 -120.547965 91 1076ft 0kts
03-May-20 09:26 46.571504 -120.547965 91 1076ft 0kts
03-May-20 09:27 46.571504 -120.547965 91 1076ft 0kts
03-May-20 09:28 46.571504 -120.547965 91 1076ft 0kts
03-May-20 09:29 46.571504 -120.547965 91 1076ft 0kts
03-May-20 09:30 46.571504 -120.547965 91 1076ft 0kts
03-May-20 09:31 46.571504 -120.547965 91 1076ft 0kts
03-May-20 09:32 46.571504 -120.547965 91 1076ft 0kts
03-May-20 09:33 46.571504 -120.547965 91 1076ft 0kts
03-May-20 09:34 46.571499 -120.547894 101 1076ft 2kts
03-May-20 09:35 46.570551 -120.546872 110 1074ft 9kts
03-May-20 09:36 46.569450 -120.542465 110 1067ft 12kts
03-May-20 09:37 46.568698 -120.538692 70 1061ft 11kts
03-May-20 09:38 46.570192 -120.534470 106 1053ft 0kts
03-May-20 09:39 46.570186 -120.534443 106 1053ft 0kts
03-May-20 09:41 46.570186 -120.534443 106 1053ft 0kts
03-May-20 09:42 46.570186 -120.534443 106 1053ft 0kts
03-May-20 09:43 46.569101 -120.535070 239 1054ft 26kts
03-May-20 09:44 46.560248 -120.560727 239 1893ft 77kts
03-May-20 09:45 46.544425 -120.568623 97 2840ft 84kts
03-May-20 09:46 46.533689 -120.537502 119 3524ft 110kts
03-May-20 09:47 46.519249 -120.494967 115 3269ft 113kts
03-May-20 09:48 46.507124 -120.455209 110 3188ft 104kts
03-May-20 09:49 46.494045 -120.417158 118 3260ft 105kts
03-May-20 09:50 46.481722 -120.379615 112 3390ft 102kts
03-May-20 09:51 46.467605 -120.343422 123 3505ft 103kts
03-May-20 09:52 46.451372 -120.308751 118 3587ft 105kts
03-May-20 09:53 46.435241 -120.272126 121 3551ft 112kts
03-May-20 09:54 46.416977 -120.235402 126 3498ft 112kts
03-May-20 09:55 46.398009 -120.199397 125 3444ft 112kts
03-May-20 09:55 46.383788 -120.167908 120 3394ft 112kts
03-May-20 09:57 46.363600 -120.124762 124 3377ft 110kts
03-May-20 09:58 46.345361 -120.089121 127 3355ft 110kts
03-May-20 09:58 46.331282 -120.058973 120 3394ft 107kts
03-May-20 10:00 46.311494 -120.017452 125 3446ft 107kts
03-May-20 10:01 46.293215 -119.983153 128 3488ft 108kts
03-May-20 10:01 46.278864 -119.953794 108 3528ft 109kts
03-May-20 10:02 46.279151 -119.910535 78 3551ft 110kts
03-May-20 10:04 46.283148 -119.858400 82 3573ft 115kts
03-May-20 10:04 46.284405 -119.820066 90 3605ft 114kts
03-May-20 10:05 46.283479 -119.774101 90 3659ft 113kts
03-May-20 10:07 46.288319 -119.719685 84 3674ft 114kts
03-May-20 10:07 46.288879 -119.679717 96 3539ft 121kts
03-May-20 10:08 46.286964 -119.631391 99 3456ft 119kts
03-May-20 10:09 46.285008 -119.583937 93 3409ft 117kts
03-May-20 10:10 46.284856 -119.536757 94 3384ft 116kts
03-May-20 10:11 46.281769 -119.491087 108 3384ft 113kts
03-May-20 10:12 46.277995 -119.445231 97 3357ft 119kts
03-May-20 10:13 46.277051 -119.398657 94 3396ft 115kts
03-May-20 10:14 46.277648 -119.352078 90 3410ft 114kts
03-May-20 10:15 46.270850 -119.307711 117 3326ft 113kts
03-May-20 10:16 46.263701 -119.263574 111 2774ft 115kts
03-May-20 10:17 46.259735 -119.218616 96 2459ft 112kts
03-May-20 10:18 46.258875 -119.174717 85 1914ft 114kts
03-May-20 10:19 46.271187 -119.136466 39 1293ft 104kts
03-May-20 10:20 46.291092 -119.116377 27 1275ft 84kts
03-May-20 10:21 46.285378 -119.098040 181 840ft 64kts
03-May-20 10:22 46.272981 -119.108223 227 515ft 52kts
03-May-20 10:23 46.265798 -119.118865 200 404ft 16kts
03-May-20 10:24 46.265050 -119.118316 136 404ft 0kts
03-May-20 10:25 46.264220 -119.117160 136 404ft 17kts
03-May-20 10:26 46.263135 -119.115623 134 404ft 2kts
03-May-20 10:27 46.261718 -119.114125 216 403ft 2kts
03-May-20 10:28 46.260480 -119.117797 220 401ft 9kts
03-May-20 10:29 46.259938 -119.117520 281 401ft 0kts
03-May-20 10:30 46.259941 -119.117501 326 401ft 0kts
03-May-20 10:31 46.259942 -119.117501 330 401ft 0kts

Navigation Log

Ident Type
Flight plan parsing failed, navigation log unavailable